createdAt,value
2022-11-17T00:02:25.728Z,9.70
2022-11-17T00:04:53.881Z,9.70
2022-11-17T00:07:21.937Z,9.60
2022-11-17T00:09:49.936Z,9.60
2022-11-17T00:12:36.852Z,9.60
2022-11-17T00:15:05.349Z,9.60
2022-11-17T00:17:34.441Z,9.60
2022-11-17T00:20:20.215Z,9.60
2022-11-17T00:22:48.389Z,9.60
2022-11-17T00:25:16.431Z,9.60
2022-11-17T00:27:45.971Z,9.60
2022-11-17T00:30:34.833Z,9.60
2022-11-17T00:33:21.164Z,9.60
2022-11-17T00:36:03.974Z,9.60
2022-11-17T00:38:31.897Z,9.60
2022-11-17T00:40:59.971Z,9.70
2022-11-17T00:43:38.413Z,9.60
2022-11-17T00:46:06.755Z,9.60
2022-11-17T00:48:34.673Z,9.50
2022-11-17T00:51:05.370Z,9.40
2022-11-17T00:53:33.683Z,9.40
2022-11-17T00:56:02.027Z,9.40
2022-11-17T00:58:31.542Z,9.50
2022-11-17T01:00:59.532Z,9.50
2022-11-17T01:03:27.886Z,9.50
2022-11-17T01:05:55.999Z,9.50
2022-11-17T01:08:24.321Z,9.40
2022-11-17T01:10:52.689Z,9.30
2022-11-17T01:13:21.325Z,9.30
2022-11-17T01:15:51.293Z,9.40
2022-11-17T01:18:19.279Z,9.40
2022-11-17T01:20:47.478Z,9.40
2022-11-17T01:26:03.486Z,9.40
2022-11-17T01:28:31.554Z,9.50
2022-11-17T01:31:07.095Z,9.50
2022-11-17T01:33:35.965Z,9.50
2022-11-17T01:36:06.048Z,9.50
2022-11-17T01:38:34.341Z,9.50
2022-11-17T01:41:04.111Z,9.50
2022-11-17T01:43:40.591Z,9.60
2022-11-17T01:46:16.092Z,9.60
2022-11-17T01:48:45.963Z,9.60
2022-11-17T01:51:15.633Z,9.60
2022-11-17T01:53:45.176Z,9.70
2022-11-17T01:56:18.732Z,9.60
2022-11-17T01:58:51.121Z,9.60
2022-11-17T02:01:23.105Z,9.70
2022-11-17T02:03:51.777Z,9.60
2022-11-17T02:06:25.753Z,9.70
2022-11-17T02:08:54.992Z,9.60
2022-11-17T02:11:24.082Z,9.60
2022-11-17T02:13:55.716Z,9.70
2022-11-17T02:16:31.056Z,9.70
2022-11-17T02:18:59.488Z,9.60
2022-11-17T02:22:07.401Z,9.60
2022-11-17T02:25:11.298Z,9.70
2022-11-17T02:28:17.225Z,9.70
2022-11-17T02:30:56.751Z,9.70
2022-11-17T02:33:34.406Z,9.70
2022-11-17T02:36:09.642Z,9.60
2022-11-17T02:38:45.415Z,9.60
2022-11-17T02:41:18.864Z,9.60
2022-11-17T02:44:04.165Z,9.60
2022-11-17T02:46:41.675Z,9.60
2022-11-17T02:49:16.948Z,9.60
2022-11-17T02:51:45.889Z,9.60
2022-11-17T02:54:14.634Z,9.60
2022-11-17T02:56:43.776Z,9.50
2022-11-17T02:59:15.057Z,9.50
2022-11-17T03:02:32.203Z,9.50
2022-11-17T03:05:09.197Z,9.60
2022-11-17T03:08:02.948Z,9.50
2022-11-17T03:10:41.262Z,9.60
2022-11-17T03:13:18.654Z,9.60
2022-11-17T03:15:54.902Z,9.60
2022-11-17T03:18:31.941Z,9.60
2022-11-17T03:21:11.527Z,9.60
2022-11-17T03:23:45.965Z,9.50
2022-11-17T03:26:17.750Z,9.50
2022-11-17T03:28:47.500Z,9.40
2022-11-17T03:31:20.255Z,9.30
2022-11-17T03:33:50.769Z,9.30
2022-11-17T03:36:23.662Z,9.30
2022-11-17T03:38:57.295Z,9.20
2022-11-17T03:41:27.844Z,9.20
2022-11-17T03:43:58.758Z,9.10
2022-11-17T03:46:29.761Z,9.10
2022-11-17T03:49:03.670Z,9.00
2022-11-17T03:51:33.281Z,9.00
2022-11-17T03:54:02.389Z,9.00
2022-11-17T03:56:39.436Z,9.10
2022-11-17T03:59:19.382Z,9.00
2022-11-17T04:01:48.909Z,9.10
2022-11-17T04:04:17.911Z,9.10
2022-11-17T04:06:46.307Z,9.00
2022-11-17T04:09:15.241Z,9.10
2022-11-17T04:12:14.905Z,9.10
2022-11-17T04:15:00.657Z,9.20
2022-11-17T04:17:31.746Z,9.20
2022-11-17T04:19:59.903Z,9.20
2022-11-17T04:22:27.851Z,9.20
2022-11-17T04:24:55.851Z,9.20
2022-11-17T04:27:44.599Z,9.20
2022-11-17T04:30:13.151Z,9.20
2022-11-17T04:32:42.382Z,9.20
2022-11-17T04:35:10.449Z,9.20
2022-11-17T04:37:38.496Z,9.20
2022-11-17T04:40:07.985Z,9.30
2022-11-17T04:42:37.703Z,9.30
2022-11-17T04:45:06.593Z,9.30
2022-11-17T04:47:36.958Z,9.30
2022-11-17T04:50:07.793Z,9.30
2022-11-17T04:52:36.035Z,9.30
2022-11-17T04:55:06.401Z,9.30
2022-11-17T04:57:34.345Z,9.30
2022-11-17T05:00:05.809Z,9.30
2022-11-17T05:02:34.049Z,9.30
2022-11-17T05:05:04.064Z,9.30
2022-11-17T05:07:36.652Z,9.30
2022-11-17T05:10:05.123Z,9.20
2022-11-17T05:12:50.863Z,9.20
2022-11-17T05:15:39.294Z,9.20
2022-11-17T05:18:06.586Z,9.20
2022-11-17T05:20:34.494Z,9.20
2022-11-17T05:23:21.709Z,9.10
2022-11-17T05:25:49.751Z,9.20
2022-11-17T05:28:18.455Z,9.20
2022-11-17T05:30:46.517Z,9.10
2022-11-17T05:33:14.541Z,9.10
2022-11-17T05:35:43.920Z,9.10
2022-11-17T05:38:16.323Z,9.00
2022-11-17T05:40:47.481Z,8.90
2022-11-17T05:43:15.565Z,8.90
2022-11-17T05:45:47.681Z,8.90
2022-11-17T05:48:16.382Z,8.90
2022-11-17T05:50:44.595Z,8.90
2022-11-17T05:53:14.123Z,8.80
2022-11-17T05:55:42.144Z,8.80
2022-11-17T05:58:17.105Z,8.80
2022-11-17T06:00:45.583Z,8.80
2022-11-17T06:03:17.651Z,8.80
2022-11-17T06:05:46.107Z,8.80
2022-11-17T06:08:16.018Z,8.80
2022-11-17T06:10:44.306Z,8.90
2022-11-17T06:13:12.281Z,8.90
2022-11-17T06:15:40.962Z,8.90
2022-11-17T06:18:13.989Z,8.90
2022-11-17T06:20:45.094Z,8.80
2022-11-17T06:23:14.698Z,8.90
2022-11-17T06:25:44.938Z,8.90
2022-11-17T06:28:15.345Z,8.90
2022-11-17T06:30:44.349Z,8.90
2022-11-17T06:33:15.421Z,8.90
2022-11-17T06:35:45.817Z,8.90
2022-11-17T06:38:14.453Z,8.90
2022-11-17T06:40:43.681Z,9.00
2022-11-17T06:43:11.774Z,9.00
2022-11-17T06:45:41.305Z,8.90
2022-11-17T06:48:10.409Z,9.00
2022-11-17T06:50:38.789Z,9.00
2022-11-17T06:53:10.214Z,9.00
2022-11-17T06:55:39.324Z,9.00
2022-11-17T06:58:12.085Z,9.00
2022-11-17T07:00:41.023Z,9.00
2022-11-17T07:03:11.076Z,9.00
2022-11-17T07:05:40.649Z,9.00
2022-11-17T07:08:09.985Z,9.00
2022-11-17T07:10:38.378Z,9.00
2022-11-17T07:13:08.788Z,9.10
2022-11-17T07:15:36.777Z,9.10
2022-11-17T07:18:08.021Z,9.10
2022-11-17T07:20:36.027Z,9.20
2022-11-17T07:23:04.512Z,9.20
2022-11-17T07:25:32.739Z,9.20
2022-11-17T07:28:01.256Z,9.20
2022-11-17T07:30:30.718Z,9.20
2022-11-17T07:33:00.564Z,9.20
2022-11-17T07:35:28.940Z,9.20
2022-11-17T07:37:59.657Z,9.30
2022-11-17T07:40:27.938Z,9.30
2022-11-17T07:42:56.424Z,9.20
2022-11-17T07:45:31.888Z,9.20
2022-11-17T07:48:04.866Z,9.20
2022-11-17T07:50:33.325Z,9.30
2022-11-17T07:53:01.619Z,9.20
2022-11-17T07:55:29.875Z,9.20
2022-11-17T07:58:01.025Z,9.20
2022-11-17T08:00:34.114Z,9.30
2022-11-17T08:03:06.819Z,9.20
2022-11-17T08:05:41.556Z,9.20
2022-11-17T08:08:13.214Z,9.20
2022-11-17T08:10:43.245Z,9.30
2022-11-17T08:13:11.802Z,9.30
2022-11-17T08:15:42.338Z,9.50
2022-11-17T08:18:12.141Z,9.50
2022-11-17T08:20:40.418Z,9.70
2022-11-17T08:23:09.107Z,9.60
2022-11-17T08:25:37.170Z,9.60
2022-11-17T08:28:05.974Z,9.70
2022-11-17T08:30:35.557Z,9.90
2022-11-17T08:33:03.871Z,10.20
2022-11-17T08:35:37.330Z,10.20
2022-11-17T08:38:05.780Z,10.10
2022-11-17T08:40:36.347Z,10.10
2022-11-17T08:43:06.692Z,10.30
2022-11-17T08:45:34.732Z,10.30
2022-11-17T08:48:04.148Z,10.30
2022-11-17T08:50:33.563Z,10.30
2022-11-17T08:53:01.898Z,10.20
2022-11-17T08:55:30.015Z,10.30
2022-11-17T08:58:01.267Z,10.40
2022-11-17T09:00:41.110Z,10.40
2022-11-17T09:03:11.228Z,10.50
2022-11-17T09:05:42.483Z,10.60
2022-11-17T09:08:43.482Z,10.70
2022-11-17T09:10:59.542Z,10.70
2022-11-17T09:13:27.690Z,10.70
2022-11-17T09:15:55.962Z,10.70
2022-11-17T09:18:24.440Z,10.70
2022-11-17T09:20:53.838Z,10.70
2022-11-17T09:23:22.031Z,10.80
2022-11-17T09:25:50.389Z,10.90
2022-11-17T09:28:18.526Z,11.00
2022-11-17T09:30:46.632Z,10.90
2022-11-17T09:33:15.028Z,11.10
2022-11-17T09:35:45.128Z,11.10
2022-11-17T09:38:14.754Z,11.10
2022-11-17T09:40:44.234Z,11.20
2022-11-17T09:43:27.008Z,11.30
2022-11-17T09:46:01.905Z,11.40
2022-11-17T09:48:41.731Z,11.70
2022-11-17T09:51:13.325Z,12.00
2022-11-17T09:53:47.640Z,12.20
2022-11-17T09:56:15.914Z,12.50
2022-11-17T09:58:47.769Z,12.70
2022-11-17T10:01:18.114Z,12.70
2022-11-17T10:03:48.724Z,12.90
2022-11-17T10:06:20.601Z,13.20
2022-11-17T10:08:58.336Z,13.30
2022-11-17T10:11:36.335Z,13.50
2022-11-17T10:14:12.858Z,13.50
2022-11-17T10:16:44.158Z,13.20
2022-11-17T10:19:18.292Z,13.00
2022-11-17T10:21:48.326Z,13.10
2022-11-17T10:24:39.292Z,13.00
2022-11-17T10:27:19.221Z,13.10
2022-11-17T10:29:58.339Z,13.20
2022-11-17T10:32:27.038Z,13.50
2022-11-17T10:34:55.503Z,13.40
2022-11-17T10:37:28.352Z,13.40
2022-11-17T10:40:22.197Z,13.50
2022-11-17T10:43:01.019Z,13.10
2022-11-17T10:45:29.952Z,13.00
2022-11-17T10:48:11.052Z,12.60
2022-11-17T10:50:39.247Z,12.30
2022-11-17T10:53:28.489Z,12.20
2022-11-17T10:56:03.648Z,12.20
2022-11-17T10:58:33.494Z,12.10
2022-11-17T11:01:04.020Z,12.20
2022-11-17T11:03:34.347Z,12.30
2022-11-17T11:06:06.058Z,12.30
2022-11-17T11:08:42.845Z,12.60
2022-11-17T11:11:19.965Z,12.60
2022-11-17T11:13:55.511Z,12.80
2022-11-17T11:16:25.792Z,12.80
2022-11-17T11:18:54.170Z,12.80
2022-11-17T11:21:38.004Z,12.90
2022-11-17T11:24:17.555Z,13.20
2022-11-17T11:27:03.332Z,13.40
2022-11-17T11:29:43.480Z,13.40
2022-11-17T11:32:25.099Z,13.50
2022-11-17T11:35:26.765Z,13.20
2022-11-17T11:38:03.397Z,13.10
2022-11-17T11:40:38.455Z,13.00
2022-11-17T11:43:21.986Z,12.90
2022-11-17T11:45:56.912Z,12.90
2022-11-17T11:48:30.898Z,12.80
2022-11-17T11:51:00.133Z,12.80
2022-11-17T11:53:45.458Z,12.70
2022-11-17T11:56:21.134Z,12.50
2022-11-17T11:58:55.177Z,12.50
2022-11-17T12:01:24.696Z,12.30
2022-11-17T12:04:07.828Z,12.20
2022-11-17T12:06:41.775Z,12.00
2022-11-17T12:09:50.338Z,11.80
2022-11-17T12:12:21.083Z,11.70
2022-11-17T12:15:11.580Z,11.70
2022-11-17T12:17:53.957Z,11.70
2022-11-17T12:20:55.274Z,11.70
2022-11-17T12:23:50.452Z,11.70
2022-11-17T12:26:27.521Z,11.80
2022-11-17T12:29:30.852Z,11.70
2022-11-17T12:32:02.153Z,11.60
2022-11-17T12:34:32.916Z,11.60
2022-11-17T12:37:30.053Z,11.70
2022-11-17T12:40:04.060Z,11.60
2022-11-17T12:42:36.425Z,11.60
2022-11-17T12:45:11.482Z,11.60
2022-11-17T12:47:46.169Z,11.70
2022-11-17T12:50:40.969Z,11.70
2022-11-17T12:53:35.518Z,11.80
2022-11-17T12:56:48.215Z,11.90
2022-11-17T12:59:32.397Z,11.90
2022-11-17T13:02:13.336Z,11.80
2022-11-17T13:04:49.944Z,11.80
2022-11-17T13:07:22.734Z,11.90
2022-11-17T13:09:54.800Z,11.80
2022-11-17T13:12:24.148Z,11.80
2022-11-17T13:14:56.832Z,11.90
2022-11-17T13:17:29.015Z,11.90
2022-11-17T13:20:04.935Z,11.80
2022-11-17T13:22:37.660Z,11.80
2022-11-17T13:25:22.829Z,11.70
2022-11-17T13:27:57.207Z,11.60
2022-11-17T13:30:29.206Z,11.40
2022-11-17T13:32:59.678Z,11.40
2022-11-17T13:35:33.854Z,11.50
2022-11-17T13:38:06.653Z,11.30
2022-11-17T13:40:36.660Z,11.30
2022-11-17T13:43:06.455Z,11.20
2022-11-17T13:45:34.536Z,11.30
2022-11-17T13:48:02.813Z,11.20
2022-11-17T13:50:38.158Z,11.20
2022-11-17T13:53:22.804Z,11.20
2022-11-17T13:55:51.708Z,11.20
2022-11-17T13:58:32.055Z,11.10
2022-11-17T14:01:00.754Z,11.00
2022-11-17T14:03:34.959Z,10.90
2022-11-17T14:06:06.618Z,10.90
2022-11-17T14:08:35.613Z,10.90
2022-11-17T14:11:14.661Z,10.70
2022-11-17T14:13:44.998Z,10.70
2022-11-17T14:16:26.568Z,10.60
2022-11-17T14:19:06.840Z,10.60
2022-11-17T14:21:37.566Z,10.70
2022-11-17T14:24:11.402Z,10.70
2022-11-17T14:26:45.214Z,10.70
2022-11-17T14:29:14.769Z,10.70
2022-11-17T14:31:43.493Z,10.70
2022-11-17T14:34:11.422Z,10.80
2022-11-17T14:36:41.657Z,10.80
2022-11-17T14:39:16.598Z,10.80
2022-11-17T14:41:45.644Z,10.80
2022-11-17T14:44:14.254Z,10.80
2022-11-17T14:46:42.764Z,10.80
2022-11-17T14:49:11.522Z,10.80
2022-11-17T14:51:41.873Z,10.80
2022-11-17T14:54:10.154Z,10.80
2022-11-17T14:56:38.220Z,10.80
2022-11-17T14:59:06.346Z,10.80
2022-11-17T15:01:38.541Z,10.80
2022-11-17T15:04:27.603Z,10.70
2022-11-17T15:06:58.987Z,10.70
2022-11-17T15:09:27.062Z,10.70
2022-11-17T15:11:55.413Z,10.70
2022-11-17T15:14:24.341Z,10.70
2022-11-17T15:16:52.764Z,10.70
2022-11-17T15:19:20.971Z,10.70
2022-11-17T15:21:49.129Z,10.60
2022-11-17T15:24:18.755Z,10.70
2022-11-17T15:26:46.893Z,10.70
2022-11-17T15:29:16.371Z,10.70
2022-11-17T15:31:45.280Z,10.60
2022-11-17T15:34:18.717Z,10.60
2022-11-17T15:36:48.154Z,10.60
2022-11-17T15:39:16.556Z,10.60
2022-11-17T15:41:46.248Z,10.60
2022-11-17T15:44:14.650Z,10.60
2022-11-17T15:46:47.192Z,10.50
2022-11-17T15:49:15.942Z,10.50
2022-11-17T15:51:44.347Z,10.50
2022-11-17T15:54:18.562Z,10.50
2022-11-17T15:56:52.453Z,10.50
2022-11-17T15:59:20.765Z,10.50
2022-11-17T16:01:49.157Z,10.40
2022-11-17T16:04:18.013Z,10.40
2022-11-17T16:06:48.105Z,10.30
2022-11-17T16:09:17.231Z,10.30
2022-11-17T16:11:45.761Z,10.20
2022-11-17T16:14:15.404Z,10.10
2022-11-17T16:16:45.224Z,10.00
2022-11-17T16:19:13.462Z,9.90
2022-11-17T16:21:41.896Z,10.00
2022-11-17T16:24:12.612Z,9.90
2022-11-17T16:26:40.708Z,9.90
2022-11-17T16:29:09.419Z,9.80
2022-11-17T16:31:39.813Z,9.80
2022-11-17T16:34:12.804Z,9.80
2022-11-17T16:36:42.936Z,9.80
2022-11-17T16:39:13.897Z,9.70
2022-11-17T16:41:45.408Z,9.70
2022-11-17T16:44:18.271Z,9.70
2022-11-17T16:46:49.651Z,9.60
2022-11-17T16:49:20.414Z,9.50
2022-11-17T16:51:51.492Z,9.50
2022-11-17T16:54:20.537Z,9.50
2022-11-17T16:56:51.363Z,9.50
2022-11-17T16:59:21.079Z,9.40
2022-11-17T17:01:51.402Z,9.30
2022-11-17T17:04:19.563Z,9.40
2022-11-17T17:06:50.598Z,9.40
2022-11-17T17:09:26.438Z,9.40
2022-11-17T17:11:56.403Z,9.40
2022-11-17T17:14:24.731Z,9.30
2022-11-17T17:16:54.267Z,9.30
2022-11-17T17:19:22.529Z,9.30
2022-11-17T17:21:50.807Z,9.30
2022-11-17T17:24:19.106Z,9.20
2022-11-17T17:26:49.114Z,9.20
2022-11-17T17:29:17.425Z,9.20
2022-11-17T17:31:46.487Z,9.10
2022-11-17T17:34:16.226Z,9.20
2022-11-17T17:36:44.366Z,9.20
2022-11-17T17:39:16.024Z,9.20
2022-11-17T17:41:46.262Z,9.20
2022-11-17T17:44:16.956Z,9.10
2022-11-17T17:46:46.322Z,9.00
2022-11-17T17:49:17.196Z,8.90
2022-11-17T17:51:46.111Z,9.00
2022-11-17T17:54:20.325Z,8.90
2022-11-17T17:56:49.250Z,8.90
2022-11-17T17:59:20.454Z,8.90
2022-11-17T18:01:49.573Z,8.90
2022-11-17T18:04:19.073Z,8.90
2022-11-17T18:06:49.077Z,8.90
2022-11-17T18:09:19.829Z,8.90
2022-11-17T18:11:54.247Z,8.90
2022-11-17T18:14:26.121Z,8.80
2022-11-17T18:16:57.034Z,8.70
2022-11-17T18:19:32.579Z,8.70
2022-11-17T18:22:01.475Z,8.70
2022-11-17T18:24:29.601Z,8.60
2022-11-17T18:26:57.840Z,8.60
2022-11-17T18:29:26.526Z,8.50
2022-11-17T18:31:54.791Z,8.50
2022-11-17T18:34:24.493Z,8.40
2022-11-17T18:36:56.646Z,8.40
2022-11-17T18:39:28.340Z,8.30
2022-11-17T18:41:58.287Z,8.30
2022-11-17T18:44:26.437Z,8.30
2022-11-17T18:47:01.217Z,8.30
2022-11-17T18:49:31.555Z,8.30
2022-11-17T18:52:01.516Z,8.30
2022-11-17T18:54:29.664Z,8.30
2022-11-17T18:56:58.037Z,8.40
2022-11-17T18:59:26.287Z,8.40
2022-11-17T19:01:54.588Z,8.30
2022-11-17T19:04:22.758Z,8.30
2022-11-17T19:06:51.336Z,8.30
2022-11-17T19:09:21.171Z,8.30
2022-11-17T19:11:49.547Z,8.20
2022-11-17T19:14:17.877Z,8.20
2022-11-17T19:16:50.604Z,8.20
2022-11-17T19:19:19.392Z,8.30
2022-11-17T19:21:47.621Z,8.30
2022-11-17T19:24:15.585Z,8.30
2022-11-17T19:26:45.877Z,8.30
2022-11-17T19:29:17.785Z,8.30
2022-11-17T19:31:52.566Z,8.30
2022-11-17T19:34:26.369Z,8.30
2022-11-17T19:36:54.650Z,8.20
2022-11-17T19:39:22.813Z,8.20
2022-11-17T19:41:53.395Z,8.20
2022-11-17T19:44:23.457Z,8.20
2022-11-17T19:46:51.471Z,8.30
2022-11-17T19:49:19.866Z,8.20
2022-11-17T19:51:48.207Z,8.20
2022-11-17T19:54:16.445Z,8.10
2022-11-17T19:56:44.709Z,8.00
2022-11-17T19:59:16.693Z,7.90
2022-11-17T20:01:45.744Z,7.90
2022-11-17T20:04:13.906Z,7.90
2022-11-17T20:06:42.076Z,7.80
2022-11-17T20:09:12.186Z,7.70
2022-11-17T20:11:41.183Z,7.50
2022-11-17T20:14:09.552Z,7.40
2022-11-17T20:16:39.473Z,7.30
2022-11-17T20:19:07.959Z,7.30
2022-11-17T20:21:36.113Z,7.30
2022-11-17T20:24:04.517Z,7.30
2022-11-17T20:26:33.789Z,7.40
2022-11-17T20:29:02.194Z,7.40
2022-11-17T20:31:32.492Z,7.50
2022-11-17T20:34:03.614Z,7.50
2022-11-17T20:36:33.973Z,7.50
2022-11-17T20:39:03.563Z,7.50
2022-11-17T20:41:32.481Z,7.50
2022-11-17T20:44:02.088Z,7.50
2022-11-17T20:46:33.620Z,7.60
2022-11-17T20:49:03.036Z,7.80
2022-11-17T20:51:32.483Z,7.80
2022-11-17T20:54:00.793Z,7.70
2022-11-17T20:56:29.116Z,7.70
2022-11-17T20:58:57.688Z,7.80
2022-11-17T21:01:26.169Z,7.90
2022-11-17T21:03:54.441Z,7.90
2022-11-17T21:06:24.044Z,7.90
2022-11-17T21:08:52.636Z,7.80
2022-11-17T21:11:40.528Z,7.70
2022-11-17T21:14:10.482Z,7.70
2022-11-17T21:16:39.984Z,7.70
2022-11-17T21:19:11.345Z,7.70
2022-11-17T21:21:40.847Z,7.70
2022-11-17T21:24:09.671Z,7.70
2022-11-17T21:26:38.223Z,7.70
2022-11-17T21:29:08.760Z,7.80
2022-11-17T21:31:36.812Z,7.80
2022-11-17T21:34:06.529Z,7.70
2022-11-17T21:36:36.227Z,7.80
2022-11-17T21:39:06.463Z,7.80
2022-11-17T21:41:36.128Z,7.80
2022-11-17T21:44:04.740Z,7.70
2022-11-17T21:46:34.726Z,7.80
2022-11-17T21:49:03.348Z,7.80
2022-11-17T21:51:34.104Z,7.70
2022-11-17T21:54:06.281Z,7.80
2022-11-17T21:56:36.105Z,7.80
2022-11-17T21:59:06.099Z,7.90
2022-11-17T22:01:36.368Z,7.90
2022-11-17T22:04:05.018Z,8.00
2022-11-17T22:06:33.379Z,8.10
2022-11-17T22:09:01.843Z,8.20
2022-11-17T22:11:38.918Z,8.10
2022-11-17T22:14:09.979Z,8.10
2022-11-17T22:16:39.881Z,8.00
2022-11-17T22:19:08.992Z,8.00
2022-11-17T22:21:40.742Z,8.00
2022-11-17T22:24:11.276Z,8.10
2022-11-17T22:26:46.290Z,8.10
2022-11-17T22:29:17.104Z,8.10
2022-11-17T22:31:46.021Z,8.10
2022-11-17T22:34:15.395Z,8.10
2022-11-17T22:36:43.857Z,8.20
2022-11-17T22:39:12.419Z,8.30
2022-11-17T22:41:48.044Z,8.30
2022-11-17T22:44:16.566Z,8.40
2022-11-17T22:46:53.043Z,8.30
2022-11-17T22:49:21.486Z,8.20
2022-11-17T22:52:04.432Z,8.10
2022-11-17T22:54:32.807Z,8.00
2022-11-17T22:57:02.816Z,8.10
2022-11-17T22:59:32.220Z,8.10
2022-11-17T23:02:02.645Z,8.20
2022-11-17T23:04:31.132Z,8.10
2022-11-17T23:07:01.616Z,8.10
2022-11-17T23:09:33.144Z,8.10
2022-11-17T23:12:10.424Z,7.90
2022-11-17T23:14:38.595Z,7.80
2022-11-17T23:17:06.737Z,7.80
2022-11-17T23:19:35.227Z,7.80
2022-11-17T23:22:03.383Z,7.80
2022-11-17T23:24:31.504Z,7.80
2022-11-17T23:27:04.577Z,7.90
2022-11-17T23:29:34.109Z,7.90
2022-11-17T23:32:02.538Z,7.90
2022-11-17T23:34:30.944Z,7.90
2022-11-17T23:37:03.913Z,8.00
2022-11-17T23:39:32.498Z,8.00
2022-11-17T23:42:00.649Z,8.10
2022-11-17T23:44:28.956Z,8.10
2022-11-17T23:46:58.560Z,8.20
2022-11-17T23:49:27.157Z,8.30
2022-11-17T23:51:57.679Z,8.30
2022-11-17T23:54:26.367Z,8.30
2022-11-17T23:56:54.442Z,8.40
2022-11-17T23:59:22.794Z,8.40
